Time;durP1;ratioP1;P1;durP2;ratioP2;P2;SDS_P1;SDS_P2;PMS_P1;PMS_P2;Temp;Humidity;BMP_temperature;BMP_pressure;BME280_temperature;BME280_humidity;BME280_pressure;Samples;Min_cycle;Max_cycle;Signal;HPM_P1;HPM_P2
2023/01/05 00:01:50;;;;;;;24.35;4.82;;;12.00;94.60;;;;;;5055333;28;20144;-79
2023/01/05 00:04:16;;;;;;;34.80;7.20;;;12.00;94.70;;;;;;5048239;28;20923;-80
2023/01/05 00:06:42;;;;;;;39.63;7.07;;;11.90;94.60;;;;;;5048345;28;20029;-79
2023/01/05 00:09:11;;;;;;;27.30;5.28;;;12.00;94.70;;;;;;5044007;28;20024;-79
2023/01/05 00:22:51;;;;;;;32.50;6.90;;;11.70;95.00;;;;;;5036583;28;20041;-78
2023/01/05 00:25:22;;;;;;;37.00;7.70;;;11.80;95.10;;;;;;5035283;28;20069;-78
2023/01/05 00:27:50;;;;;;;34.78;7.40;;;11.70;95.00;;;;;;5017540;28;20022;-79
2023/01/05 00:30:17;;;;;;;37.03;7.43;;;11.70;95.20;;;;;;5005426;28;20037;-79
2023/01/05 00:32:45;;;;;;;29.55;6.00;;;11.70;95.10;;;;;;5021230;28;20049;-79
2023/01/05 00:35:12;;;;;;;29.33;6.00;;;11.70;95.20;;;;;;5020758;28;20041;-80
2023/01/05 00:37:39;;;;;;;31.95;6.57;;;11.70;95.20;;;;;;5028312;28;20060;-79
2023/01/05 00:40:12;;;;;;;31.48;8.00;;;11.60;95.30;;;;;;5007434;28;20037;-79
2023/01/05 00:42:38;;;;;;;42.40;7.78;;;11.60;95.20;;;;;;5036138;28;20024;-80
2023/01/05 00:45:09;;;;;;;59.38;12.80;;;11.60;95.30;;;;;;4997929;28;20033;-79
2023/01/05 00:47:35;;;;;;;37.55;9.25;;;11.60;95.30;;;;;;5013618;28;20018;-78
2023/01/05 00:50:00;;;;;;;30.98;7.55;;;11.60;95.40;;;;;;5013416;28;20037;-79
2023/01/05 00:52:26;;;;;;;33.88;7.60;;;11.60;95.40;;;;;;5015640;28;20034;-79
2023/01/05 00:54:52;;;;;;;41.63;10.13;;;11.50;95.40;;;;;;5005189;28;20053;-78
2023/01/05 00:57:18;;;;;;;49.92;9.68;;;11.50;95.50;;;;;;5000106;28;20262;-79
2023/01/05 00:59:44;;;;;;;32.30;6.95;;;11.50;95.40;;;;;;5025541;28;20034;-79
2023/01/05 01:02:10;;;;;;;34.75;7.97;;;11.50;95.40;;;;;;5022537;28;20085;-79
2023/01/05 01:04:36;;;;;;;30.35;6.88;;;11.50;95.50;;;;;;5016433;28;20022;-79
2023/01/05 01:07:03;;;;;;;38.35;7.07;;;11.40;95.80;;;;;;5013493;28;20029;-79
2023/01/05 01:09:29;;;;;;;49.40;10.00;;;11.30;95.70;;;;;;5019695;28;20027;-78
2023/01/05 01:11:54;;;;;;;45.28;8.50;;;11.40;95.80;;;;;;5013465;28;20029;-79
2023/01/05 01:14:20;;;;;;;36.08;7.93;;;11.30;95.80;;;;;;5009175;28;20025;-79
2023/01/05 01:16:47;;;;;;;43.72;7.18;;;11.40;95.90;;;;;;5005938;28;20050;-81
2023/01/05 01:19:18;;;;;;;32.53;6.82;;;11.30;95.90;;;;;;4996783;28;20097;-80
2023/01/05 01:21:44;;;;;;;38.70;7.35;;;11.30;95.90;;;;;;4992742;28;20030;-80
2023/01/05 01:24:15;;;;;;;29.63;6.60;;;11.30;95.90;;;;;;5010018;28;20022;-80
2023/01/05 01:26:41;;;;;;;42.15;8.40;;;11.40;96.00;;;;;;4996020;28;1074413;-80
2023/01/05 01:29:08;;;;;;;34.08;7.15;;;11.30;96.00;;;;;;5065323;28;20056;-78
2023/01/05 01:31:34;;;;;;;41.47;7.55;;;11.40;96.00;;;;;;5067828;28;20022;-80
2023/01/05 01:34:01;;;;;;;46.30;7.93;;;11.30;96.00;;;;;;5060251;28;20086;-81
2023/01/05 01:36:26;;;;;;;32.63;8.30;;;11.30;96.10;;;;;;5035642;28;20092;-82
2023/01/05 01:38:53;;;;;;;42.15;6.90;;;11.30;96.20;;;;;;5062704;28;20021;-79
2023/01/05 01:41:20;;;;;;;40.38;7.55;;;11.20;96.30;;;;;;5035344;28;20076;-80
2023/01/05 01:43:48;;;;;;;31.20;6.32;;;11.20;96.40;;;;;;5054236;28;20526;-79
2023/01/05 01:46:16;;;;;;;35.28;7.93;;;11.30;96.40;;;;;;5041074;28;20108;-80
2023/01/05 01:48:56;;;;;;;34.60;6.35;;;11.20;96.40;;;;;;5060558;28;20075;-80
2023/01/05 01:51:28;;;;;;;40.25;8.73;;;11.30;96.50;;;;;;5046512;28;20146;-80
2023/01/05 01:53:58;;;;;;;45.08;8.80;;;11.30;96.40;;;;;;5051511;28;20029;-80
2023/01/05 01:56:29;;;;;;;33.50;7.22;;;11.20;96.50;;;;;;5039574;28;20044;-79
2023/01/05 01:58:55;;;;;;;31.15;6.93;;;11.20;96.50;;;;;;5056178;28;20059;-79
2023/01/05 02:01:23;;;;;;;34.20;5.88;;;11.20;96.50;;;;;;5050728;28;20472;-78
2023/01/05 02:03:49;;;;;;;39.45;8.90;;;11.30;96.40;;;;;;5054375;28;20025;-79
2023/01/05 02:06:16;;;;;;;40.63;7.35;;;11.30;96.40;;;;;;5048346;28;20022;-80
2023/01/05 02:08:42;;;;;;;52.03;9.85;;;11.20;96.40;;;;;;5048036;28;20035;-79
2023/01/05 02:11:26;;;;;;;33.92;6.30;;;11.30;96.40;;;;;;5059172;28;20260;-79
2023/01/05 02:14:20;;;;;;;40.92;7.88;;;11.30;96.30;;;;;;5065222;28;20028;-80
2023/01/05 02:17:03;;;;;;;36.08;6.35;;;11.30;96.20;;;;;;5042654;28;20040;-79
2023/01/05 02:19:45;;;;;;;43.63;7.57;;;11.40;96.20;;;;;;5054742;28;20074;-80
2023/01/05 02:22:17;;;;;;;32.53;7.32;;;11.30;96.20;;;;;;5065929;28;20035;-78
2023/01/05 02:25:18;;;;;;;31.42;6.10;;;11.30;96.20;;;;;;5038805;28;20387;-78
2023/01/05 02:28:22;;;;;;;30.20;6.28;;;11.30;96.20;;;;;;5042931;28;20191;-79
2023/01/05 02:31:09;;;;;;;34.28;7.05;;;11.40;96.20;;;;;;5052401;28;20045;-79
2023/01/05 02:33:37;;;;;;;39.97;7.25;;;11.40;96.20;;;;;;5038689;28;20108;-80
2023/01/05 02:36:21;;;;;;;36.92;7.93;;;11.30;96.10;;;;;;5040439;28;20052;-79
2023/01/05 02:39:16;;;;;;;41.88;7.72;;;11.40;96.20;;;;;;5043421;28;20068;-79
2023/01/05 02:41:57;;;;;;;35.58;6.45;;;11.40;96.20;;;;;;5021212;28;20521;-79
2023/01/05 02:44:28;;;;;;;35.63;6.82;;;11.40;96.30;;;;;;5040687;28;20022;-80
2023/01/05 02:47:21;;;;;;;37.45;6.50;;;11.40;96.40;;;;;;5073411;28;20028;-79
2023/01/05 02:49:47;;;;;;;34.47;6.70;;;11.40;96.20;;;;;;5034934;28;20729;-77
2023/01/05 02:52:21;;;;;;;35.80;6.93;;;11.40;96.20;;;;;;5054299;28;20041;-79
2023/01/05 02:54:52;;;;;;;30.40;5.68;;;11.40;96.20;;;;;;5057648;28;20032;-78
2023/01/05 02:57:46;;;;;;;33.22;6.63;;;11.40;96.20;;;;;;5049659;28;20060;-79
2023/01/05 03:00:33;;;;;;;43.20;6.32;;;11.40;96.20;;;;;;5055513;28;20083;-79
2023/01/05 03:03:07;;;;;;;40.22;7.05;;;11.40;96.20;;;;;;5042657;28;20037;-79
2023/01/05 03:05:57;;;;;;;40.90;7.15;;;11.40;96.10;;;;;;5055998;28;20028;-78
2023/01/05 03:08:24;;;;;;;36.15;7.88;;;11.40;96.20;;;;;;5042586;28;20026;-79
2023/01/05 03:13:54;;;;;;;46.65;6.85;;;11.50;96.10;;;;;;5051898;28;20172;-79
2023/01/05 03:16:33;;;;;;;34.60;6.50;;;11.50;96.10;;;;;;5065587;28;20037;-78
2023/01/05 03:35:42;;;;;;;34.88;8.15;;;11.50;96.20;;;;;;5045370;28;20040;-79
2023/01/05 03:38:11;;;;;;;36.67;6.88;;;11.50;96.20;;;;;;5060168;28;20026;-80
2023/01/05 03:40:38;;;;;;;38.15;5.68;;;11.50;96.10;;;;;;5041395;28;20041;-80
2023/01/05 03:43:06;;;;;;;29.45;5.13;;;11.50;96.20;;;;;;5043812;28;20055;-79
2023/01/05 03:45:43;;;;;;;37.58;6.30;;;11.50;96.20;;;;;;5051692;28;20032;-79
2023/01/05 03:48:10;;;;;;;32.58;7.50;;;11.50;96.10;;;;;;5065182;28;20033;-78
2023/01/05 03:50:41;;;;;;;26.85;5.28;;;11.50;96.10;;;;;;5044759;28;20402;-80
2023/01/05 03:53:06;;;;;;;34.22;5.60;;;11.50;96.10;;;;;;5048065;28;20041;-78
2023/01/05 03:55:33;;;;;;;31.05;6.00;;;11.50;96.10;;;;;;5043542;28;20699;-79
2023/01/05 03:57:58;;;;;;;26.63;6.57;;;11.50;96.10;;;;;;5022807;28;20052;-80
2023/01/05 04:00:24;;;;;;;37.15;6.35;;;11.50;96.10;;;;;;5049909;28;20021;-79
2023/01/05 04:02:51;;;;;;;32.65;6.80;;;11.50;96.00;;;;;;5048161;28;20056;-81
2023/01/05 04:05:17;;;;;;;38.53;7.25;;;11.60;96.00;;;;;;5042695;28;20017;-80
2023/01/05 04:07:43;;;;;;;28.95;5.57;;;11.60;95.90;;;;;;5057078;28;20514;-79
2023/01/05 04:10:09;;;;;;;37.15;6.90;;;11.60;96.00;;;;;;5050643;28;20017;-79
2023/01/05 04:12:35;;;;;;;32.38;6.20;;;11.50;96.00;;;;;;5050699;28;20025;-80
2023/01/05 04:15:02;;;;;;;31.67;6.07;;;11.50;96.00;;;;;;5043778;28;20407;-79
2023/01/05 04:17:29;;;;;;;29.60;5.35;;;11.50;96.10;;;;;;5059913;28;20363;-80
2023/01/05 04:19:55;;;;;;;25.48;6.18;;;11.50;96.10;;;;;;5042408;28;20028;-78
2023/01/05 04:22:20;;;;;;;29.73;5.68;;;11.50;96.10;;;;;;5060426;28;20112;-79
2023/01/05 04:24:46;;;;;;;32.13;6.00;;;11.50;96.00;;;;;;5068124;28;20021;-79
2023/01/05 04:27:12;;;;;;;29.65;5.60;;;11.50;96.00;;;;;;5042387;28;20085;-79
2023/01/05 04:29:37;;;;;;;33.97;6.82;;;11.50;96.00;;;;;;5053640;28;20017;-80
2023/01/05 04:32:08;;;;;;;32.45;6.00;;;11.50;96.00;;;;;;5042140;28;20025;-79
2023/01/05 04:34:34;;;;;;;35.78;6.93;;;11.50;96.00;;;;;;5049394;28;20024;-79
2023/01/05 04:36:59;;;;;;;38.83;7.53;;;11.50;96.00;;;;;;5053548;28;20116;-80
2023/01/05 04:39:25;;;;;;;40.30;6.38;;;11.50;96.00;;;;;;5064892;28;20059;-80
2023/01/05 04:41:54;;;;;;;25.60;5.35;;;11.50;96.00;;;;;;5048159;28;20014;-79
2023/01/05 04:44:19;;;;;;;29.33;6.18;;;11.50;96.00;;;;;;5047803;28;20035;-80
2023/01/05 04:46:45;;;;;;;26.65;5.82;;;11.50;96.10;;;;;;5044775;28;20017;-79
2023/01/05 04:49:11;;;;;;;30.38;4.95;;;11.50;96.00;;;;;;5040586;28;20197;-79
2023/01/05 04:51:36;;;;;;;28.95;5.65;;;11.50;96.10;;;;;;5047998;28;20032;-79
2023/01/05 04:54:02;;;;;;;24.88;5.40;;;11.60;96.10;;;;;;5053690;28;20135;-80
2023/01/05 04:56:28;;;;;;;29.33;6.20;;;11.50;96.20;;;;;;5035139;28;20072;-79
2023/01/05 04:58:54;;;;;;;31.65;6.75;;;11.50;96.20;;;;;;5045027;28;20490;-81
2023/01/05 05:01:20;;;;;;;29.30;6.75;;;11.50;96.30;;;;;;5049792;28;20018;-80
2023/01/05 05:03:46;;;;;;;31.35;6.13;;;11.50;96.30;;;;;;5036367;28;20026;-80
2023/01/05 05:06:11;;;;;;;33.40;6.32;;;11.60;96.30;;;;;;5049737;28;20025;-79
2023/01/05 05:08:38;;;;;;;28.77;6.22;;;11.50;96.30;;;;;;5041007;28;20037;-79
2023/01/05 05:11:04;;;;;;;23.05;4.45;;;11.60;96.50;;;;;;5061598;28;20029;-80
2023/01/05 05:13:30;;;;;;;33.92;5.82;;;11.50;96.50;;;;;;5034422;28;20391;-79
2023/01/05 05:15:56;;;;;;;35.53;6.07;;;11.40;97.00;;;;;;5030819;28;20092;-80
2023/01/05 05:18:21;;;;;;;25.25;5.55;;;11.40;96.80;;;;;;5054256;28;20052;-81
2023/01/05 05:20:50;;;;;;;31.85;6.68;;;11.50;96.80;;;;;;5044310;28;20017;-80
2023/01/05 05:23:18;;;;;;;40.17;6.25;;;11.50;96.80;;;;;;5040592;28;20024;-78
2023/01/05 05:25:43;;;;;;;25.65;4.55;;;11.50;96.90;;;;;;5035462;28;20049;-79
2023/01/05 05:28:09;;;;;;;29.88;5.07;;;11.50;96.90;;;;;;5044505;28;20036;-79
2023/01/05 05:30:37;;;;;;;36.55;6.72;;;11.50;96.80;;;;;;5056300;28;20100;-79
2023/01/05 05:33:03;;;;;;;29.92;6.88;;;11.40;96.80;;;;;;5044138;28;20028;-80
2023/01/05 05:35:28;;;;;;;33.05;6.45;;;11.40;96.90;;;;;;5045288;28;21011;-80
2023/01/05 05:37:56;;;;;;;30.50;6.72;;;11.40;96.90;;;;;;5057053;28;20025;-80
2023/01/05 05:40:22;;;;;;;30.65;5.20;;;11.40;96.90;;;;;;5071414;28;20021;-78
2023/01/05 05:42:47;;;;;;;37.63;7.63;;;11.40;96.80;;;;;;5061505;28;20603;-79
2023/01/05 05:45:13;;;;;;;34.70;6.45;;;11.50;96.80;;;;;;5035775;28;20017;-80
2023/01/05 05:47:39;;;;;;;43.97;7.90;;;11.50;96.70;;;;;;5038633;28;20040;-78
2023/01/05 05:50:05;;;;;;;40.28;8.35;;;11.50;96.80;;;;;;5033904;28;20021;-79
2023/01/05 05:52:30;;;;;;;29.33;6.10;;;11.50;96.80;;;;;;5020357;28;20033;-80
2023/01/05 05:54:56;;;;;;;38.15;5.97;;;11.50;96.80;;;;;;5050443;28;20070;-78
2023/01/05 05:57:22;;;;;;;29.45;6.40;;;11.50;96.70;;;;;;5062312;28;20134;-79
2023/01/05 05:59:47;;;;;;;32.90;5.70;;;11.60;96.70;;;;;;5017953;28;20023;-78
2023/01/05 06:02:13;;;;;;;29.25;6.20;;;11.50;96.70;;;;;;5019187;28;20115;-80
2023/01/05 06:04:39;;;;;;;22.95;5.18;;;11.50;96.60;;;;;;5053957;28;20053;-80
2023/01/05 06:07:05;;;;;;;29.48;5.28;;;11.60;96.60;;;;;;5044432;28;20044;-80
2023/01/05 06:09:30;;;;;;;33.25;8.15;;;11.60;96.60;;;;;;5053124;28;20025;-78
2023/01/05 06:11:56;;;;;;;34.10;5.57;;;11.60;96.50;;;;;;5049730;28;20052;-81
2023/01/05 06:14:22;;;;;;;30.60;6.65;;;11.60;96.50;;;;;;5053836;28;20052;-81
2023/01/05 06:16:48;;;;;;;40.95;6.63;;;11.60;96.50;;;;;;5025006;28;20041;-80
2023/01/05 06:19:14;;;;;;;35.97;7.07;;;11.70;96.40;;;;;;5038510;28;20032;-80
2023/01/05 06:21:40;;;;;;;37.22;6.40;;;11.70;96.60;;;;;;5042496;28;20017;-79
2023/01/05 06:24:06;;;;;;;41.03;6.57;;;11.70;96.50;;;;;;5060277;28;20179;-79
2023/01/05 06:26:32;;;;;;;37.35;5.93;;;11.70;96.60;;;;;;5043466;28;20120;-80
2023/01/05 06:28:57;;;;;;;32.22;6.40;;;11.60;96.50;;;;;;5045991;28;20025;-78
2023/01/05 06:31:23;;;;;;;38.35;5.40;;;11.70;96.50;;;;;;5046842;28;20028;-79
2023/01/05 06:33:49;;;;;;;40.65;6.10;;;11.60;96.60;;;;;;5044408;28;20833;-80
2023/01/05 06:36:15;;;;;;;25.40;5.00;;;11.60;96.50;;;;;;5038056;28;20048;-80
2023/01/05 06:38:44;;;;;;;28.25;5.38;;;11.70;96.60;;;;;;5040688;28;20025;-79
2023/01/05 06:41:09;;;;;;;34.50;6.35;;;11.60;96.60;;;;;;5049189;28;20048;-80
2023/01/05 06:43:35;;;;;;;31.33;6.40;;;11.60;96.50;;;;;;5047408;28;20021;-80
2023/01/05 06:46:01;;;;;;;37.03;6.22;;;11.70;96.50;;;;;;5024446;28;20112;-79
2023/01/05 06:48:26;;;;;;;36.33;5.97;;;11.70;96.60;;;;;;5028815;28;20109;-80
2023/01/05 06:50:52;;;;;;;31.75;6.10;;;11.60;96.50;;;;;;5054207;28;20037;-80
2023/01/05 06:53:18;;;;;;;36.95;6.85;;;11.70;96.50;;;;;;5052286;28;20024;-80
2023/01/05 06:55:44;;;;;;;39.70;8.73;;;11.70;96.60;;;;;;5064695;28;20021;-80
2023/01/05 06:58:11;;;;;;;34.60;6.70;;;11.70;96.50;;;;;;5054813;28;20029;-80
2023/01/05 07:00:36;;;;;;;30.30;7.07;;;11.70;96.60;;;;;;5028289;28;20083;-80
2023/01/05 07:03:02;;;;;;;35.47;7.80;;;11.70;96.60;;;;;;5042777;28;20029;-79
2023/01/05 07:05:28;;;;;;;38.03;8.02;;;11.70;96.70;;;;;;5054639;28;20036;-80
2023/01/05 07:07:53;;;;;;;25.58;6.10;;;11.60;96.80;;;;;;5039754;28;20044;-79
2023/01/05 07:10:19;;;;;;;29.08;6.85;;;11.60;96.90;;;;;;5042435;28;20030;-81
2023/01/05 07:12:45;;;;;;;34.17;7.80;;;11.70;96.60;;;;;;5035672;28;20061;-81
2023/01/05 07:15:10;;;;;;;27.42;5.60;;;11.70;96.60;;;;;;5045970;28;20020;-81
2023/01/05 07:17:36;;;;;;;35.97;7.40;;;11.70;96.70;;;;;;5032749;28;20033;-81
2023/01/05 07:20:03;;;;;;;36.75;8.10;;;11.70;96.70;;;;;;5044680;28;20029;-80
2023/01/05 07:22:29;;;;;;;35.83;7.63;;;11.60;96.80;;;;;;5030218;28;20029;-81
2023/01/05 07:24:56;;;;;;;42.72;8.85;;;11.70;96.80;;;;;;5055047;28;20036;-81
2023/01/05 07:27:24;;;;;;;45.67;9.57;;;11.70;96.90;;;;;;5029734;28;20052;-81
2023/01/05 07:29:50;;;;;;;40.55;7.40;;;11.60;97.00;;;;;;5039375;28;20021;-82
2023/01/05 07:32:16;;;;;;;38.95;8.95;;;11.60;96.90;;;;;;5041723;28;20092;-82
2023/01/05 07:34:41;;;;;;;41.80;8.00;;;11.70;96.90;;;;;;5043232;28;20048;-80
2023/01/05 07:37:07;;;;;;;43.70;8.65;;;11.60;96.90;;;;;;5036840;28;20033;-81
2023/01/05 07:39:32;;;;;;;39.63;6.90;;;11.70;96.90;;;;;;5046177;28;20025;-80
2023/01/05 07:41:58;;;;;;;40.15;8.20;;;11.70;96.90;;;;;;5052613;28;20025;-81
2023/01/05 07:44:24;;;;;;;37.20;9.10;;;11.70;96.80;;;;;;5038585;28;20052;-82
2023/01/05 07:46:49;;;;;;;35.88;8.43;;;11.70;96.80;;;;;;5048127;28;20112;-81
2023/01/05 07:49:15;;;;;;;42.17;8.48;;;11.70;96.70;;;;;;5041557;28;20075;-81
2023/01/05 07:51:41;;;;;;;35.20;8.13;;;11.60;96.70;;;;;;5031092;28;20018;-76
2023/01/05 07:54:07;;;;;;;35.15;6.53;;;11.70;96.70;;;;;;5045671;28;20032;-81
2023/01/05 07:56:32;;;;;;;52.28;10.45;;;11.70;96.60;;;;;;5056981;28;20031;-81
2023/01/05 07:58:59;;;;;;;37.40;7.20;;;11.70;96.70;;;;;;5054661;28;20546;-81
2023/01/05 08:01:25;;;;;;;34.70;7.18;;;11.70;96.60;;;;;;5042144;28;20069;-82
2023/01/05 08:03:50;;;;;;;42.65;7.35;;;11.70;96.60;;;;;;5045544;28;20057;-81
2023/01/05 08:06:18;;;;;;;40.70;7.63;;;11.80;96.50;;;;;;5038480;28;20039;-81
2023/01/05 08:08:45;;;;;;;36.80;7.55;;;11.80;96.40;;;;;;5054220;28;20029;-81
2023/01/05 08:11:15;;;;;;;25.95;4.68;;;11.80;96.40;;;;;;5046942;28;20026;-82
2023/01/05 08:13:59;;;;;;;;;;;11.80;96.30;;;;;;5038409;28;20033;-81
2023/01/05 08:16:30;;;;;;;32.72;6.43;;;11.90;96.40;;;;;;5034826;28;19921;-81
2023/01/05 08:18:56;;;;;;;32.63;6.50;;;11.80;96.20;;;;;;5045850;28;20035;-81
2023/01/05 08:21:22;;;;;;;39.22;6.05;;;11.80;96.20;;;;;;5029862;28;20052;-80
2023/01/05 08:23:49;;;;;;;32.22;6.72;;;11.90;96.20;;;;;;5057842;28;20120;-81
2023/01/05 08:26:17;;;;;;;23.20;5.55;;;11.80;96.10;;;;;;5012977;28;20053;-82
2023/01/05 08:28:43;;;;;;;47.05;10.73;;;11.90;96.10;;;;;;5014814;28;20072;-82
2023/01/05 08:31:15;;;;;;;27.77;6.65;;;11.90;96.30;;;;;;5004655;28;20030;-81
2023/01/05 08:33:41;;;;;;;27.73;7.88;;;11.80;96.00;;;;;;4995076;28;20037;-81
2023/01/05 08:36:12;;;;;;;42.95;7.45;;;11.90;96.00;;;;;;4994929;28;20038;-81
2023/01/05 08:38:47;;;;;;;41.30;9.63;;;11.90;96.00;;;;;;4997412;28;20035;-79
2023/01/05 08:41:15;;;;;;;28.67;5.63;;;11.90;95.90;;;;;;4998413;28;20034;-80
2023/01/05 08:43:41;;;;;;;39.78;8.07;;;11.90;95.90;;;;;;5005979;28;20474;-81
2023/01/05 08:46:07;;;;;;;34.47;6.90;;;11.90;95.80;;;;;;5001686;28;20038;-79
2023/01/05 08:48:33;;;;;;;37.75;6.88;;;11.90;95.80;;;;;;5006068;28;20081;-79
2023/01/05 08:51:06;;;;;;;45.08;6.85;;;11.90;95.80;;;;;;5010449;28;20040;-81
2023/01/05 08:53:35;;;;;;;22.00;4.63;;;11.90;95.80;;;;;;5005040;28;20075;-80
2023/01/05 08:56:01;;;;;;;35.67;7.20;;;11.90;95.80;;;;;;5000971;28;20150;-82
2023/01/05 08:58:29;;;;;;;38.58;7.05;;;11.80;95.70;;;;;;5009810;28;20102;-83
2023/01/05 09:00:56;;;;;;;42.95;8.05;;;11.80;95.70;;;;;;5009965;28;20076;-81
2023/01/05 09:03:21;;;;;;;34.13;6.70;;;11.80;95.80;;;;;;5002089;28;20112;-81
2023/01/05 09:05:47;;;;;;;40.03;7.63;;;11.80;95.80;;;;;;5005980;28;20852;-82
2023/01/05 09:08:13;;;;;;;33.25;7.55;;;11.80;95.80;;;;;;4998569;28;20054;-81
2023/01/05 09:10:38;;;;;;;39.80;7.53;;;11.80;95.70;;;;;;4994188;28;20117;-80
2023/01/05 09:13:04;;;;;;;28.23;5.60;;;11.80;95.70;;;;;;5004971;28;20444;-81
2023/01/05 09:15:30;;;;;;;35.38;6.82;;;11.90;95.70;;;;;;5012860;28;20025;-80
2023/01/05 09:17:57;;;;;;;39.80;7.63;;;11.80;95.60;;;;;;5008029;28;20022;-82
2023/01/05 09:20:23;;;;;;;33.45;5.85;;;11.80;95.60;;;;;;5008472;28;20034;-82
2023/01/05 09:22:48;;;;;;;36.60;7.35;;;11.90;95.60;;;;;;5007314;28;20013;-80
2023/01/05 09:25:14;;;;;;;32.60;7.35;;;11.80;95.60;;;;;;5026173;28;20048;-81
2023/01/05 09:27:40;;;;;;;41.00;7.72;;;11.90;95.60;;;;;;5053028;28;20021;-82
2023/01/05 09:30:06;;;;;;;32.20;7.20;;;11.80;95.50;;;;;;5053793;28;20458;-82
2023/01/05 09:32:32;;;;;;;37.30;7.55;;;11.80;95.50;;;;;;5033713;28;20044;-82
2023/01/05 09:34:58;;;;;;;23.80;5.78;;;11.80;95.50;;;;;;5050544;28;20032;-81
2023/01/05 09:37:23;;;;;;;26.10;6.53;;;11.90;95.60;;;;;;5047223;28;20113;-82
2023/01/05 09:39:49;;;;;;;27.75;6.03;;;11.90;95.50;;;;;;5031658;28;20484;-81
2023/01/05 09:42:19;;;;;;;26.80;5.63;;;11.90;95.40;;;;;;5040740;28;20063;-80
2023/01/05 09:44:53;;;;;;;33.85;7.45;;;11.90;95.30;;;;;;5044866;28;20028;-80
2023/01/05 09:47:33;;;;;;;32.70;5.82;;;11.90;95.30;;;;;;5036747;28;20198;-81
2023/01/05 09:49:59;;;;;;;20.55;4.93;;;11.90;95.40;;;;;;5058007;28;20468;-81
2023/01/05 09:52:25;;;;;;;42.40;8.00;;;11.90;95.30;;;;;;5043893;28;20100;-81
2023/01/05 09:54:51;;;;;;;29.08;6.65;;;11.90;95.20;;;;;;5054450;28;20021;-82
2023/01/05 09:57:20;;;;;;;38.88;7.13;;;11.90;95.30;;;;;;5036393;28;20071;-81
2023/01/05 09:59:50;;;;;;;38.83;7.30;;;11.90;95.30;;;;;;5058146;28;20020;-82
2023/01/05 10:02:25;;;;;;;34.38;6.72;;;11.90;95.30;;;;;;5036052;28;20086;-82
2023/01/05 10:04:52;;;;;;;39.08;8.95;;;11.90;95.40;;;;;;5046497;28;20021;-80
2023/01/05 10:07:30;;;;;;;38.95;6.93;;;11.90;95.30;;;;;;5067387;28;20502;-80
2023/01/05 10:10:00;;;;;;;39.03;8.07;;;11.90;95.30;;;;;;5065332;28;20025;-80
2023/01/05 10:13:04;;;;;;;39.25;7.10;;;12.00;95.30;;;;;;5035121;28;20383;-80
2023/01/05 10:15:46;;;;;;;33.72;5.78;;;11.90;95.10;;;;;;5048900;28;20128;-81
2023/01/05 10:18:21;;;;;;;35.95;7.18;;;12.00;95.10;;;;;;5053177;28;20036;-81
2023/01/05 10:20:57;;;;;;;38.75;7.25;;;11.90;95.10;;;;;;5053954;28;20025;-81
2023/01/05 10:23:52;;;;;;;35.08;6.45;;;12.00;95.20;;;;;;5044355;28;20059;-81
2023/01/05 10:26:29;;;;;;;36.80;7.35;;;12.00;95.20;;;;;;5022561;28;20389;-81
2023/01/05 10:29:03;;;;;;;35.63;6.90;;;12.00;95.10;;;;;;5036490;28;20024;-80
2023/01/05 10:31:48;;;;;;;38.03;8.07;;;12.00;95.00;;;;;;5023110;28;20484;-81
2023/01/05 10:34:34;;;;;;;30.50;6.20;;;12.00;95.00;;;;;;5070058;28;20056;-81
2023/01/05 10:37:20;;;;;;;38.85;8.00;;;11.90;95.00;;;;;;5050998;28;20044;-82
2023/01/05 10:40:18;;;;;;;28.10;6.15;;;11.90;95.10;;;;;;5027134;28;20120;-80
2023/01/05 10:43:05;;;;;;;28.58;5.32;;;12.00;95.20;;;;;;5034691;28;20030;-81
2023/01/05 10:45:31;;;;;;;30.40;5.82;;;12.00;95.10;;;;;;5055790;28;20012;-82
2023/01/05 10:47:58;;;;;;;32.25;5.97;;;12.10;95.00;;;;;;5063014;28;20017;-82
2023/01/05 10:50:36;;;;;;;39.55;6.05;;;12.10;95.30;;;;;;5052986;28;20490;-80
2023/01/05 10:53:17;;;;;;;30.90;6.28;;;12.10;94.90;;;;;;5030816;28;20016;-81
2023/01/05 10:55:53;;;;;;;27.88;5.15;;;12.10;94.90;;;;;;5054020;28;20067;-81
2023/01/05 10:58:25;;;;;;;21.70;5.40;;;12.10;95.00;;;;;;5048024;28;20056;-81
2023/01/05 11:00:53;;;;;;;29.70;5.90;;;12.10;95.00;;;;;;5043521;28;20032;-82
2023/01/05 11:03:38;;;;;;;32.95;5.78;;;12.10;94.90;;;;;;5049789;28;20074;-80
2023/01/05 11:06:05;;;;;;;32.70;5.55;;;12.20;94.90;;;;;;5044556;28;20021;-82
2023/01/05 11:08:31;;;;;;;30.42;7.40;;;12.20;94.80;;;;;;5028972;28;20040;-82
2023/01/05 11:11:06;;;;;;;40.58;7.80;;;12.20;94.70;;;;;;5043919;28;20055;-81
2023/01/05 11:13:47;;;;;;;33.88;7.07;;;12.20;94.70;;;;;;5055808;28;20026;-81
2023/01/05 11:16:19;;;;;;;;;;;12.20;94.70;;;;;;5033279;28;20036;-81
2023/01/05 11:19:05;;;;;;;37.58;7.95;;;12.30;94.70;;;;;;5044956;28;19908;-81
2023/01/05 11:21:45;;;;;;;33.50;7.03;;;12.20;94.90;;;;;;5053918;28;20017;-80
2023/01/05 11:24:23;;;;;;;37.83;6.95;;;12.20;94.90;;;;;;5041657;28;20360;-81
2023/01/05 11:26:51;;;;;;;33.70;6.75;;;12.20;95.00;;;;;;5050429;28;20110;-80
2023/01/05 11:29:18;;;;;;;37.70;6.20;;;12.20;95.10;;;;;;5046719;28;20028;-82
2023/01/05 11:32:00;;;;;;;37.15;7.32;;;12.30;95.10;;;;;;5048915;28;20501;-81
2023/01/05 11:34:35;;;;;;;30.15;5.88;;;12.30;94.90;;;;;;5046556;28;20030;-81
2023/01/05 11:37:10;;;;;;;32.50;7.43;;;12.30;94.80;;;;;;5008406;28;20063;-80
2023/01/05 11:39:45;;;;;;;28.08;6.45;;;12.20;94.90;;;;;;5045767;28;20029;-82
2023/01/05 11:42:17;;;;;;;40.05;8.25;;;12.30;95.00;;;;;;5046852;28;20021;-81
2023/01/05 11:44:47;;;;;;;25.63;6.32;;;12.30;94.80;;;;;;5034228;28;20399;-82
2023/01/05 11:47:31;;;;;;;36.90;8.00;;;12.40;94.80;;;;;;5043283;28;20032;-81
2023/01/05 11:50:13;;;;;;;39.60;8.68;;;12.50;94.60;;;;;;5043611;28;20112;-81
2023/01/05 11:52:52;;;;;;;37.22;7.82;;;12.60;94.50;;;;;;5052016;28;20033;-80
2023/01/05 11:55:21;;;;;;;34.87;7.33;;;12.60;94.40;;;;;;5042632;28;20024;-81
2023/01/05 11:57:48;;;;;;;33.95;7.20;;;12.70;94.50;;;;;;5030956;28;20295;-81
2023/01/05 12:00:32;;;;;;;38.22;7.80;;;12.70;94.30;;;;;;5063253;28;20135;-81
2023/01/05 12:03:20;;;;;;;27.80;7.55;;;12.70;94.10;;;;;;5044524;28;20045;-82
2023/01/05 12:05:53;;;;;;;35.30;7.75;;;12.70;94.20;;;;;;5035565;28;20449;-81
2023/01/05 12:08:39;;;;;;;38.47;7.65;;;12.70;94.40;;;;;;5044907;28;20576;-82
2023/01/05 12:11:19;;;;;;;39.53;7.70;;;12.60;94.40;;;;;;5048294;28;20028;-82
2023/01/05 12:14:38;;;;;;;46.15;8.98;;;12.60;94.10;;;;;;5060222;28;20021;-81
2023/01/05 12:17:14;;;;;;;32.55;7.18;;;12.60;94.10;;;;;;4973586;28;20041;-81
2023/01/05 12:19:48;;;;;;;29.00;6.78;;;12.70;94.30;;;;;;5031831;28;20037;-81
2023/01/05 12:22:31;;;;;;;38.75;7.50;;;12.70;94.20;;;;;;5063894;28;20025;-80
2023/01/05 12:25:19;;;;;;;29.25;5.93;;;12.70;94.50;;;;;;5055685;28;20038;-78
2023/01/05 12:28:06;;;;;;;28.77;7.20;;;12.80;94.50;;;;;;5043105;28;20025;-79
2023/01/05 12:30:41;;;;;;;29.80;7.55;;;13.10;94.20;;;;;;5051642;28;20029;-80
2023/01/05 12:33:34;;;;;;;37.00;7.15;;;13.50;93.60;;;;;;5038090;28;20029;-80
2023/01/05 12:36:02;;;;;;;28.33;6.57;;;14.20;92.90;;;;;;5053682;28;20038;-79
2023/01/05 12:38:36;;;;;;;29.75;4.97;;;14.90;90.60;;;;;;5038021;28;20033;-80
2023/01/05 12:41:43;;;;;;;37.80;7.10;;;15.30;89.00;;;;;;5058944;28;20051;-78
2023/01/05 12:44:30;;;;;;;35.03;7.25;;;15.50;87.40;;;;;;5043147;28;20083;-77
2023/01/05 12:47:33;;;;;;;30.75;6.35;;;15.50;85.20;;;;;;5049713;28;20021;-78
2023/01/05 12:50:17;;;;;;;23.73;6.68;;;15.50;87.40;;;;;;5043622;28;20040;-79
2023/01/05 12:52:48;;;;;;;31.35;6.50;;;15.40;86.20;;;;;;5054133;28;20029;-78
2023/01/05 12:55:37;;;;;;;33.10;7.43;;;15.20;86.30;;;;;;5051852;28;20518;-78
2023/01/05 12:58:13;;;;;;;33.63;7.83;;;14.90;86.40;;;;;;5023590;28;20570;-78
2023/01/05 13:00:45;;;;;;;32.72;6.97;;;14.60;87.90;;;;;;5044087;28;20043;-79
2023/01/05 13:03:30;;;;;;;32.67;7.35;;;14.30;88.30;;;;;;5041391;28;20807;-77
2023/01/05 13:06:16;;;;;;;32.03;6.97;;;14.10;89.70;;;;;;5043521;28;20044;-78
2023/01/05 13:08:50;;;;;;;28.90;6.00;;;13.90;90.10;;;;;;5046247;28;20031;-78
2023/01/05 13:11:23;;;;;;;23.25;5.50;;;13.80;90.40;;;;;;5055505;28;20044;-78
2023/01/05 13:13:57;;;;;;;32.70;6.47;;;13.90;90.30;;;;;;5051636;28;20031;-78
2023/01/05 13:16:29;;;;;;;28.65;5.82;;;14.20;90.00;;;;;;5053248;28;20036;-78
2023/01/05 13:19:24;;;;;;;27.35;6.30;;;14.60;88.10;;;;;;5056077;28;20032;-78
2023/01/05 13:21:52;;;;;;;23.17;6.57;;;14.70;86.60;;;;;;5043944;28;20029;-79
2023/01/05 13:24:33;;;;;;;31.75;6.22;;;14.50;86.70;;;;;;5047786;28;20626;-77
2023/01/05 13:27:01;;;;;;;35.33;7.50;;;14.30;87.60;;;;;;5049860;28;20060;-77
2023/01/05 13:29:35;;;;;;;26.75;6.32;;;14.10;87.70;;;;;;5040627;28;20029;-78